sensor_id;sensor_type;location;lat;lon;timestamp;pressure;altitude;pressure_sealevel;temperature
63689;BMP280;54895;40.928;14.480;2023-04-12T00:00:53;101124.81;;;16.36
63689;BMP280;54895;40.928;14.480;2023-04-12T00:03:21;101110.91;;;16.15
63689;BMP280;54895;40.928;14.480;2023-04-12T00:05:47;101096.81;;;16.07
63689;BMP280;54895;40.928;14.480;2023-04-12T00:08:20;101112.69;;;16.20
63689;BMP280;54895;40.928;14.480;2023-04-12T00:10:51;101108.94;;;16.23
63689;BMP280;54895;40.928;14.480;2023-04-12T00:13:18;101098.72;;;16.14
63689;BMP280;54895;40.928;14.480;2023-04-12T00:15:45;101084.41;;;16.19
63689;BMP280;54895;40.928;14.480;2023-04-12T00:18:11;101103.72;;;16.25
63689;BMP280;54895;40.928;14.480;2023-04-12T00:20:38;101099.34;;;16.44
63689;BMP280;54895;40.928;14.480;2023-04-12T00:23:05;101106.78;;;16.76
63689;BMP280;54895;40.928;14.480;2023-04-12T00:25:32;101099.34;;;16.44
63689;BMP280;54895;40.928;14.480;2023-04-12T00:27:59;101081.56;;;16.10
63689;BMP280;54895;40.928;14.480;2023-04-12T00:30:25;101076.94;;;15.95
63689;BMP280;54895;40.928;14.480;2023-04-12T00:32:53;101058.19;;;15.80
63689;BMP280;54895;40.928;14.480;2023-04-12T00:35:20;101049.38;;;15.72
63689;BMP280;54895;40.928;14.480;2023-04-12T00:37:47;101047.06;;;15.91
63689;BMP280;54895;40.928;14.480;2023-04-12T00:40:13;101035.84;;;15.70
63689;BMP280;54895;40.928;14.480;2023-04-12T00:42:40;101021.16;;;15.64
63689;BMP280;54895;40.928;14.480;2023-04-12T00:45:07;101025.59;;;15.76
63689;BMP280;54895;40.928;14.480;2023-04-12T00:47:36;101018.44;;;15.71
63689;BMP280;54895;40.928;14.480;2023-04-12T00:50:03;101033.59;;;16.06
63689;BMP280;54895;40.928;14.480;2023-04-12T00:52:32;101033.63;;;15.99
63689;BMP280;54895;40.928;14.480;2023-04-12T00:55:05;101029.91;;;15.79
63689;BMP280;54895;40.928;14.480;2023-04-12T00:57:34;101025.78;;;15.93
63689;BMP280;54895;40.928;14.480;2023-04-12T01:00:07;101022.91;;;15.76
63689;BMP280;54895;40.928;14.480;2023-04-12T01:02:35;100999.16;;;15.65
63689;BMP280;54895;40.928;14.480;2023-04-12T01:05:05;100991.84;;;15.58
63689;BMP280;54895;40.928;14.480;2023-04-12T01:15:59;100982.50;;;15.82
63689;BMP280;54895;40.928;14.480;2023-04-12T01:18:29;100979.44;;;15.78
63689;BMP280;54895;40.928;14.480;2023-04-12T01:21:08;100953.22;;;15.46
63689;BMP280;54895;40.928;14.480;2023-04-12T01:24:02;100928.91;;;15.29
63689;BMP280;54895;40.928;14.480;2023-04-12T01:26:40;100907.84;;;15.18
63689;BMP280;54895;40.928;14.480;2023-04-12T01:29:09;100918.56;;;15.33
63689;BMP280;54895;40.928;14.480;2023-04-12T01:31:39;100923.53;;;15.44
63689;BMP280;54895;40.928;14.480;2023-04-12T01:34:08;100922.47;;;15.47
63689;BMP280;54895;40.928;14.480;2023-04-12T01:36:38;100915.50;;;15.29
63689;BMP280;54895;40.928;14.480;2023-04-12T01:39:06;100904.09;;;15.29
63689;BMP280;54895;40.928;14.480;2023-04-12T01:41:38;100896.06;;;15.21
63689;BMP280;54895;40.928;14.480;2023-04-12T01:44:06;100905.34;;;15.20
63689;BMP280;54895;40.928;14.480;2023-04-12T01:46:32;100898.19;;;15.15
63689;BMP280;54895;40.928;14.480;2023-04-12T01:49:02;100890.53;;;15.12
63689;BMP280;54895;40.928;14.480;2023-04-12T01:51:52;100914.44;;;15.40
63689;BMP280;54895;40.928;14.480;2023-04-12T01:54:28;100913.91;;;15.41
63689;BMP280;54895;40.928;14.480;2023-04-12T01:56:58;100888.94;;;15.16
63689;BMP280;54895;40.928;14.480;2023-04-12T01:59:30;100916.06;;;15.43
63689;BMP280;54895;40.928;14.480;2023-04-12T02:01:58;100908.00;;;15.35
63689;BMP280;54895;40.928;14.480;2023-04-12T02:04:26;100865.00;;;14.88
63689;BMP280;54895;40.928;14.480;2023-04-12T02:06:55;100882.66;;;15.06
63689;BMP280;54895;40.928;14.480;2023-04-12T02:09:22;100875.88;;;15.05
63689;BMP280;54895;40.928;14.480;2023-04-12T02:11:49;100878.91;;;15.09
63689;BMP280;54895;40.928;14.480;2023-04-12T02:14:16;100874.97;;;15.25
63689;BMP280;54895;40.928;14.480;2023-04-12T02:16:44;100894.78;;;15.22
63689;BMP280;54895;40.928;14.480;2023-04-12T02:19:11;100864.25;;;14.73
63689;BMP280;54895;40.928;14.480;2023-04-12T02:21:43;100850.50;;;14.61
63689;BMP280;54895;40.928;14.480;2023-04-12T02:24:11;100841.75;;;14.76
63689;BMP280;54895;40.928;14.480;2023-04-12T02:26:38;100840.69;;;14.86
63689;BMP280;54895;40.928;14.480;2023-04-12T02:29:09;100851.06;;;14.97
63689;BMP280;54895;40.928;14.480;2023-04-12T02:31:37;100827.09;;;14.69
63689;BMP280;54895;40.928;14.480;2023-04-12T02:34:06;100825.69;;;14.83
63689;BMP280;54895;40.928;14.480;2023-04-12T02:36:39;100824.09;;;14.80
63689;BMP280;54895;40.928;14.480;2023-04-12T02:39:05;100821.56;;;14.67
63689;BMP280;54895;40.928;14.480;2023-04-12T02:41:35;100789.97;;;14.43
63689;BMP280;54895;40.928;14.480;2023-04-12T02:44:04;100787.84;;;14.49
63689;BMP280;54895;40.928;14.480;2023-04-12T02:46:31;100777.84;;;14.42
63689;BMP280;54895;40.928;14.480;2023-04-12T02:48:58;100771.78;;;14.42
63689;BMP280;54895;40.928;14.480;2023-04-12T02:51:36;100773.19;;;14.35
63689;BMP280;54895;40.928;14.480;2023-04-12T02:54:04;100763.38;;;14.30
63689;BMP280;54895;40.928;14.480;2023-04-12T02:56:45;100756.41;;;14.27
63689;BMP280;54895;40.928;14.480;2023-04-12T02:59:31;100752.84;;;14.25
63689;BMP280;54895;40.928;14.480;2023-04-12T03:02:09;100750.69;;;14.38
63689;BMP280;54895;40.928;14.480;2023-04-12T03:04:37;100751.06;;;14.42
63689;BMP280;54895;40.928;14.480;2023-04-12T03:07:09;100746.78;;;14.39
63689;BMP280;54895;40.928;14.480;2023-04-12T03:09:48;100768.91;;;14.55
63689;BMP280;54895;40.928;14.480;2023-04-12T03:12:16;100764.25;;;14.55
63689;BMP280;54895;40.928;14.480;2023-04-12T03:14:53;100749.25;;;14.37
63689;BMP280;54895;40.928;14.480;2023-04-12T03:17:23;100752.47;;;14.43
63689;BMP280;54895;40.928;14.480;2023-04-12T03:19:52;100758.72;;;14.38
63689;BMP280;54895;40.928;14.480;2023-04-12T03:22:20;100766.06;;;14.60
63689;BMP280;54895;40.928;14.480;2023-04-12T03:24:53;100782.81;;;14.38
63689;BMP280;54895;40.928;14.480;2023-04-12T03:27:21;100764.63;;;14.29
63689;BMP280;54895;40.928;14.480;2023-04-12T03:29:49;100748.72;;;14.16
63689;BMP280;54895;40.928;14.480;2023-04-12T03:32:20;100770.34;;;14.63
63689;BMP280;54895;40.928;14.480;2023-04-12T03:34:47;100792.13;;;14.67
63689;BMP280;54895;40.928;14.480;2023-04-12T03:37:18;100794.28;;;14.69
63689;BMP280;54895;40.928;14.480;2023-04-12T03:39:44;100788.72;;;14.29
63689;BMP280;54895;40.928;14.480;2023-04-12T03:42:17;100784.25;;;14.32
63689;BMP280;54895;40.928;14.480;2023-04-12T03:44:45;100764.63;;;14.29
63689;BMP280;54895;40.928;14.480;2023-04-12T03:47:14;100785.31;;;14.51
63689;BMP280;54895;40.928;14.480;2023-04-12T03:49:41;100796.41;;;14.48
63689;BMP280;54895;40.928;14.480;2023-04-12T03:52:13;100788.88;;;14.31
63689;BMP280;54895;40.928;14.480;2023-04-12T03:54:43;100765.31;;;14.07
63689;BMP280;54895;40.928;14.480;2023-04-12T03:57:14;100734.94;;;13.97
63689;BMP280;54895;40.928;14.480;2023-04-12T03:59:47;100763.31;;;14.00
63689;BMP280;54895;40.928;14.480;2023-04-12T04:02:18;100742.78;;;13.95
63689;BMP280;54895;40.928;14.480;2023-04-12T04:04:48;100785.66;;;14.33
63689;BMP280;54895;40.928;14.480;2023-04-12T04:07:24;100777.47;;;14.23
63689;BMP280;54895;40.928;14.480;2023-04-12T04:09:54;100778.88;;;14.24
63689;BMP280;54895;40.928;14.480;2023-04-12T04:12:21;100776.75;;;14.23
63689;BMP280;54895;40.928;14.480;2023-04-12T04:14:52;100790.28;;;14.32
63689;BMP280;54895;40.928;14.480;2023-04-12T04:17:29;100807.66;;;14.46
63689;BMP280;54895;40.928;14.480;2023-04-12T04:19:56;100828.16;;;14.51
63689;BMP280;54895;40.928;14.480;2023-04-12T04:22:23;100798.53;;;14.19
63689;BMP280;54895;40.928;14.480;2023-04-12T04:24:52;100793.50;;;14.16
63689;BMP280;54895;40.928;14.480;2023-04-12T04:27:19;100788.09;;;13.93
63689;BMP280;54895;40.928;14.480;2023-04-12T04:29:51;100780.63;;;14.07
63689;BMP280;54895;40.928;14.480;2023-04-12T04:32:18;100773.59;;;13.81
63689;BMP280;54895;40.928;14.480;2023-04-12T04:34:46;100771.59;;;13.74
63689;BMP280;54895;40.928;14.480;2023-04-12T04:37:16;100758.31;;;13.54
63689;BMP280;54895;40.928;14.480;2023-04-12T04:39:45;100769.84;;;13.84
63689;BMP280;54895;40.928;14.480;2023-04-12T04:42:12;100812.41;;;14.25
63689;BMP280;54895;40.928;14.480;2023-04-12T04:44:44;100795.97;;;14.06
63689;BMP280;54895;40.928;14.480;2023-04-12T04:47:10;100801.69;;;14.10
63689;BMP280;54895;40.928;14.480;2023-04-12T04:49:37;100770.41;;;13.83
63689;BMP280;54895;40.928;14.480;2023-04-12T04:52:15;100781.50;;;13.94
63689;BMP280;54895;40.928;14.480;2023-04-12T04:54:44;100808.34;;;14.39
63689;BMP280;54895;40.928;14.480;2023-04-12T04:57:11;100818.34;;;14.39
63689;BMP280;54895;40.928;14.480;2023-04-12T04:59:39;100833.16;;;14.47
63689;BMP280;54895;40.928;14.480;2023-04-12T05:02:14;100818.69;;;14.28
63689;BMP280;54895;40.928;14.480;2023-04-12T05:04:43;100801.47;;;14.08
63689;BMP280;54895;40.928;14.480;2023-04-12T05:07:12;100805.66;;;14.32
63689;BMP280;54895;40.928;14.480;2023-04-12T05:09:43;100767.72;;;13.90
63689;BMP280;54895;40.928;14.480;2023-04-12T05:12:10;100772.81;;;14.24
63689;BMP280;54895;40.928;14.480;2023-04-12T05:14:37;100782.13;;;14.38
63689;BMP280;54895;40.928;14.480;2023-04-12T05:17:05;100786.72;;;14.22
63689;BMP280;54895;40.928;14.480;2023-04-12T05:19:32;100776.00;;;14.22
63689;BMP280;54895;40.928;14.480;2023-04-12T05:21:59;100804.63;;;14.87
63689;BMP280;54895;40.928;14.480;2023-04-12T05:24:25;100836.38;;;15.13
63689;BMP280;54895;40.928;14.480;2023-04-12T05:26:54;100839.59;;;15.12
63689;BMP280;54895;40.928;14.480;2023-04-12T05:29:22;100857.09;;;15.13
63689;BMP280;54895;40.928;14.480;2023-04-12T05:31:49;100877.78;;;15.42
63689;BMP280;54895;40.928;14.480;2023-04-12T05:34:19;100888.09;;;15.68
63689;BMP280;54895;40.928;14.480;2023-04-12T05:36:52;100890.59;;;15.66
63689;BMP280;54895;40.928;14.480;2023-04-12T05:39:20;100911.91;;;16.11
63689;BMP280;54895;40.928;14.480;2023-04-12T05:41:49;100898.72;;;15.98
63689;BMP280;54895;40.928;14.480;2023-04-12T05:44:15;100886.31;;;15.71
63689;BMP280;54895;40.928;14.480;2023-04-12T05:46:42;100885.13;;;15.96
63689;BMP280;54895;40.928;14.480;2023-04-12T05:49:09;100916.22;;;16.07
63689;BMP280;54895;40.928;14.480;2023-04-12T05:51:36;100901.22;;;15.96
63689;BMP280;54895;40.928;14.480;2023-04-12T05:54:03;100890.22;;;16.17
63689;BMP280;54895;40.928;14.480;2023-04-12T05:56:34;100893.38;;;16.30
63689;BMP280;54895;40.928;14.480;2023-04-12T05:59:01;100907.09;;;16.42
63689;BMP280;54895;40.928;14.480;2023-04-12T06:01:28;100916.25;;;16.63
63689;BMP280;54895;40.928;14.480;2023-04-12T06:03:56;100924.13;;;16.68
63689;BMP280;54895;40.928;14.480;2023-04-12T06:06:23;100933.94;;;16.98
63689;BMP280;54895;40.928;14.480;2023-04-12T06:08:50;100944.03;;;16.90
63689;BMP280;54895;40.928;14.480;2023-04-12T06:11:17;100954.66;;;17.05
63689;BMP280;54895;40.928;14.480;2023-04-12T06:13:44;100976.72;;;17.45
63689;BMP280;54895;40.928;14.480;2023-04-12T06:16:13;100975.69;;;17.57
63689;BMP280;54895;40.928;14.480;2023-04-12T06:18:40;100984.50;;;17.75
63689;BMP280;54895;40.928;14.480;2023-04-12T06:21:07;101008.38;;;18.05
63689;BMP280;54895;40.928;14.480;2023-04-12T06:23:34;101002.84;;;18.03
63689;BMP280;54895;40.928;14.480;2023-04-12T06:26:01;101014.34;;;18.30
63689;BMP280;54895;40.928;14.480;2023-04-12T06:28:28;101009.59;;;18.38
63689;BMP280;54895;40.928;14.480;2023-04-12T06:30:55;101008.78;;;18.45
63689;BMP280;54895;40.928;14.480;2023-04-12T06:33:22;101029.03;;;18.98
63689;BMP280;54895;40.928;14.480;2023-04-12T06:35:50;101019.25;;;19.12
63689;BMP280;54895;40.928;14.480;2023-04-12T06:38:17;101006.69;;;19.24
63689;BMP280;54895;40.928;14.480;2023-04-12T06:40:43;101023.56;;;19.34
63689;BMP280;54895;40.928;14.480;2023-04-12T06:43:11;101020.31;;;19.45
63689;BMP280;54895;40.928;14.480;2023-04-12T06:45:37;101024.88;;;19.62
63689;BMP280;54895;40.928;14.480;2023-04-12T06:48:03;101026.59;;;19.57
63689;BMP280;54895;40.928;14.480;2023-04-12T06:50:30;101028.16;;;19.41
63689;BMP280;54895;40.928;14.480;2023-04-12T06:52:56;101037.53;;;19.40
63689;BMP280;54895;40.928;14.480;2023-04-12T06:55:22;101036.94;;;19.70
63689;BMP280;54895;40.928;14.480;2023-04-12T07:01:54;101041.22;;;20.11
63689;BMP280;54895;40.928;14.480;2023-04-12T07:04:21;101033.53;;;20.08
63689;BMP280;54895;40.928;14.480;2023-04-12T07:06:47;101026.63;;;20.35
63689;BMP280;54895;40.928;14.480;2023-04-12T07:09:14;101027.81;;;20.23
63689;BMP280;54895;40.928;14.480;2023-04-12T07:11:40;101020.69;;;20.27
63689;BMP280;54895;40.928;14.480;2023-04-12T07:14:07;101015.69;;;20.33
63689;BMP280;54895;40.928;14.480;2023-04-12T07:16:33;101020.50;;;20.44
63689;BMP280;54895;40.928;14.480;2023-04-12T07:19:00;101020.47;;;20.54
63689;BMP280;54895;40.928;14.480;2023-04-12T07:21:26;101023.84;;;20.63
63689;BMP280;54895;40.928;14.480;2023-04-12T07:23:54;101010.47;;;20.66
63689;BMP280;54895;40.928;14.480;2023-04-12T07:26:20;101020.91;;;20.50
63689;BMP280;54895;40.928;14.480;2023-04-12T07:28:47;101007.94;;;20.49
63689;BMP280;54895;40.928;14.480;2023-04-12T07:31:13;101009.88;;;20.67
63689;BMP280;54895;40.928;14.480;2023-04-12T07:33:40;101008.25;;;20.83
63689;BMP280;54895;40.928;14.480;2023-04-12T07:36:07;101019.28;;;20.75
63689;BMP280;54895;40.928;14.480;2023-04-12T07:38:34;101012.75;;;20.60
63689;BMP280;54895;40.928;14.480;2023-04-12T07:41:00;101015.78;;;20.54
63689;BMP280;54895;40.928;14.480;2023-04-12T07:43:27;101018.69;;;20.37
63689;BMP280;54895;40.928;14.480;2023-04-12T07:45:54;101006.00;;;20.40
63689;BMP280;54895;40.928;14.480;2023-04-12T07:48:21;101004.50;;;20.88
63689;BMP280;54895;40.928;14.480;2023-04-12T07:50:48;101007.88;;;20.98
63689;BMP280;54895;40.928;14.480;2023-04-12T07:53:25;101006.56;;;20.78
63689;BMP280;54895;40.928;14.480;2023-04-12T07:55:54;100998.25;;;21.27
63689;BMP280;54895;40.928;14.480;2023-04-12T08:01:44;100997.06;;;20.98
63689;BMP280;54895;40.928;14.480;2023-04-12T08:04:10;101004.06;;;20.91
63689;BMP280;54895;40.928;14.480;2023-04-12T08:06:37;100991.66;;;20.98
63689;BMP280;54895;40.928;14.480;2023-04-12T08:09:04;100993.44;;;20.54
63689;BMP280;54895;40.928;14.480;2023-04-12T08:11:30;100985.47;;;20.56
63689;BMP280;54895;40.928;14.480;2023-04-12T08:14:00;100983.50;;;20.77
63689;BMP280;54895;40.928;14.480;2023-04-12T08:16:26;100994.59;;;20.81
63689;BMP280;54895;40.928;14.480;2023-04-12T08:18:53;100992.69;;;21.14
63689;BMP280;54895;40.928;14.480;2023-04-12T08:21:19;100998.03;;;21.56
63689;BMP280;54895;40.928;14.480;2023-04-12T08:23:47;101015.88;;;21.38
63689;BMP280;54895;40.928;14.480;2023-04-12T08:26:15;100995.78;;;21.73
63689;BMP280;54895;40.928;14.480;2023-04-12T08:28:42;100993.66;;;21.83
63689;BMP280;54895;40.928;14.480;2023-04-12T08:31:08;100971.34;;;22.28
63689;BMP280;54895;40.928;14.480;2023-04-12T08:33:34;100980.66;;;22.48
63689;BMP280;54895;40.928;14.480;2023-04-12T08:36:01;100985.69;;;22.20
63689;BMP280;54895;40.928;14.480;2023-04-12T08:38:31;100977.72;;;22.44
63689;BMP280;54895;40.928;14.480;2023-04-12T08:40:58;100981.13;;;22.45
63689;BMP280;54895;40.928;14.480;2023-04-12T08:43:27;100989.56;;;21.29
63689;BMP280;54895;40.928;14.480;2023-04-12T08:45:55;100979.84;;;22.34
63689;BMP280;54895;40.928;14.480;2023-04-12T08:48:23;100992.72;;;22.93
63689;BMP280;54895;40.928;14.480;2023-04-12T08:50:52;101005.13;;;23.33
63689;BMP280;54895;40.928;14.480;2023-04-12T08:53:19;101001.97;;;23.50
63689;BMP280;54895;40.928;14.480;2023-04-12T08:55:47;101000.44;;;23.10
63689;BMP280;54895;40.928;14.480;2023-04-12T08:58:14;100995.59;;;22.72
63689;BMP280;54895;40.928;14.480;2023-04-12T09:00:41;100999.78;;;21.19
63689;BMP280;54895;40.928;14.480;2023-04-12T09:03:10;100980.28;;;20.29
63689;BMP280;54895;40.928;14.480;2023-04-12T09:05:36;100961.69;;;20.24
63689;BMP280;54895;40.928;14.480;2023-04-12T09:08:03;100977.88;;;21.15
63689;BMP280;54895;40.928;14.480;2023-04-12T09:10:36;100985.00;;;21.64
63689;BMP280;54895;40.928;14.480;2023-04-12T09:13:04;100977.78;;;22.01
63689;BMP280;54895;40.928;14.480;2023-04-12T09:15:32;100974.63;;;22.38
63689;BMP280;54895;40.928;14.480;2023-04-12T09:18:09;100979.00;;;21.12
63689;BMP280;54895;40.928;14.480;2023-04-12T09:20:39;100960.66;;;21.10
63689;BMP280;54895;40.928;14.480;2023-04-12T09:23:17;100969.75;;;21.80
63689;BMP280;54895;40.928;14.480;2023-04-12T09:25:45;100971.22;;;22.27
63689;BMP280;54895;40.928;14.480;2023-04-12T09:28:22;100975.81;;;22.35
63689;BMP280;54895;40.928;14.480;2023-04-12T09:30:50;100981.97;;;22.95
63689;BMP280;54895;40.928;14.480;2023-04-12T09:33:18;100948.78;;;23.33
63689;BMP280;54895;40.928;14.480;2023-04-12T09:35:45;100969.88;;;23.21
63689;BMP280;54895;40.928;14.480;2023-04-12T09:38:12;100978.63;;;23.83
63689;BMP280;54895;40.928;14.480;2023-04-12T09:40:39;100983.31;;;23.44
63689;BMP280;54895;40.928;14.480;2023-04-12T09:43:06;100978.19;;;23.00
63689;BMP280;54895;40.928;14.480;2023-04-12T09:45:34;100980.56;;;22.94
63689;BMP280;54895;40.928;14.480;2023-04-12T09:48:03;100965.94;;;23.24
63689;BMP280;54895;40.928;14.480;2023-04-12T09:50:30;100971.75;;;22.82
63689;BMP280;54895;40.928;14.480;2023-04-12T09:53:00;100973.22;;;23.33
63689;BMP280;54895;40.928;14.480;2023-04-12T09:55:29;100966.53;;;22.86
63689;BMP280;54895;40.928;14.480;2023-04-12T10:01:33;100966.09;;;23.15
63689;BMP280;54895;40.928;14.480;2023-04-12T10:04:01;100932.63;;;22.62
63689;BMP280;54895;40.928;14.480;2023-04-12T10:06:28;100943.16;;;23.04
63689;BMP280;54895;40.928;14.480;2023-04-12T10:08:56;100951.53;;;23.85
63689;BMP280;54895;40.928;14.480;2023-04-12T10:11:26;100952.34;;;24.14
63689;BMP280;54895;40.928;14.480;2023-04-12T10:13:55;100953.78;;;23.25
63689;BMP280;54895;40.928;14.480;2023-04-12T10:16:21;100943.75;;;22.91
63689;BMP280;54895;40.928;14.480;2023-04-12T10:18:49;100941.94;;;23.32
63689;BMP280;54895;40.928;14.480;2023-04-12T10:21:17;100939.44;;;23.61
63689;BMP280;54895;40.928;14.480;2023-04-12T10:23:45;100942.19;;;24.15
63689;BMP280;54895;40.928;14.480;2023-04-12T10:26:14;100944.41;;;24.05
63689;BMP280;54895;40.928;14.480;2023-04-12T10:28:42;100938.44;;;23.68
63689;BMP280;54895;40.928;14.480;2023-04-12T10:31:27;100934.44;;;23.19
63689;BMP280;54895;40.928;14.480;2023-04-12T10:33:56;100939.84;;;22.94
63689;BMP280;54895;40.928;14.480;2023-04-12T10:36:55;100930.28;;;23.68
63689;BMP280;54895;40.928;14.480;2023-04-12T10:39:42;100919.56;;;22.95
63689;BMP280;54895;40.928;14.480;2023-04-12T10:42:26;100926.94;;;22.81
63689;BMP280;54895;40.928;14.480;2023-04-12T10:55:39;100905.53;;;23.37
63689;BMP280;54895;40.928;14.480;2023-04-12T11:02:06;100901.22;;;22.82
63689;BMP280;54895;40.928;14.480;2023-04-12T11:04:27;100903.72;;;23.03
63689;BMP280;54895;40.928;14.480;2023-04-12T11:07:06;100898.28;;;23.03
63689;BMP280;54895;40.928;14.480;2023-04-12T11:09:58;100900.44;;;23.43
63689;BMP280;54895;40.928;14.480;2023-04-12T11:12:48;100898.34;;;23.55
63689;BMP280;54895;40.928;14.480;2023-04-12T11:15:15;100894.38;;;23.31
63689;BMP280;54895;40.928;14.480;2023-04-12T11:17:54;100879.75;;;24.17
63689;BMP280;54895;40.928;14.480;2023-04-12T11:20:20;100878.19;;;22.35
63689;BMP280;54895;40.928;14.480;2023-04-12T11:22:48;100883.16;;;23.50
63689;BMP280;54895;40.928;14.480;2023-04-12T11:25:16;100875.25;;;22.79
63689;BMP280;54895;40.928;14.480;2023-04-12T11:27:53;100870.75;;;23.47
63689;BMP280;54895;40.928;14.480;2023-04-12T11:30:20;100881.25;;;24.20
63689;BMP280;54895;40.928;14.480;2023-04-12T11:32:48;100868.97;;;24.19
63689;BMP280;54895;40.928;14.480;2023-04-12T11:35:14;100872.19;;;24.29
63689;BMP280;54895;40.928;14.480;2023-04-12T11:37:42;100876.63;;;24.09
63689;BMP280;54895;40.928;14.480;2023-04-12T11:40:09;100859.81;;;23.20
63689;BMP280;54895;40.928;14.480;2023-04-12T11:42:38;100856.22;;;23.54
63689;BMP280;54895;40.928;14.480;2023-04-12T11:45:05;100856.50;;;23.47
63689;BMP280;54895;40.928;14.480;2023-04-12T11:47:33;100872.00;;;24.11
63689;BMP280;54895;40.928;14.480;2023-04-12T11:50:00;100864.13;;;24.04
63689;BMP280;54895;40.928;14.480;2023-04-12T11:52:28;100865.88;;;23.84
63689;BMP280;54895;40.928;14.480;2023-04-12T11:55:01;100858.38;;;23.44
63689;BMP280;54895;40.928;14.480;2023-04-12T11:57:31;100859.69;;;23.30
63689;BMP280;54895;40.928;14.480;2023-04-12T11:59:59;100864.31;;;23.41
63689;BMP280;54895;40.928;14.480;2023-04-12T12:02:26;100859.34;;;22.99
63689;BMP280;54895;40.928;14.480;2023-04-12T12:04:54;100860.00;;;23.49
63689;BMP280;54895;40.928;14.480;2023-04-12T12:07:23;100849.16;;;23.76
63689;BMP280;54895;40.928;14.480;2023-04-12T12:09:50;100861.41;;;24.04
63689;BMP280;54895;40.928;14.480;2023-04-12T12:12:17;100862.09;;;24.45
63689;BMP280;54895;40.928;14.480;2023-04-12T12:14:45;100849.84;;;23.63
63689;BMP280;54895;40.928;14.480;2023-04-12T12:17:14;100853.16;;;23.48
63689;BMP280;54895;40.928;14.480;2023-04-12T12:19:43;100858.22;;;23.67
63689;BMP280;54895;40.928;14.480;2023-04-12T12:22:10;100855.91;;;23.62
63689;BMP280;54895;40.928;14.480;2023-04-12T12:24:38;100863.00;;;23.28
63689;BMP280;54895;40.928;14.480;2023-04-12T12:27:05;100860.75;;;23.11
63689;BMP280;54895;40.928;14.480;2023-04-12T12:29:36;100837.47;;;22.83
63689;BMP280;54895;40.928;14.480;2023-04-12T12:32:09;100856.47;;;22.58
63689;BMP280;54895;40.928;14.480;2023-04-12T12:34:35;100850.63;;;22.39
63689;BMP280;54895;40.928;14.480;2023-04-12T12:37:03;100837.69;;;22.62
63689;BMP280;54895;40.928;14.480;2023-04-12T12:39:32;100836.63;;;22.67
63689;BMP280;54895;40.928;14.480;2023-04-12T12:41:59;100841.78;;;23.52
63689;BMP280;54895;40.928;14.480;2023-04-12T12:44:26;100836.06;;;23.59
63689;BMP280;54895;40.928;14.480;2023-04-12T12:46:52;100836.59;;;23.17
63689;BMP280;54895;40.928;14.480;2023-04-12T12:49:19;100834.84;;;23.35
63689;BMP280;54895;40.928;14.480;2023-04-12T12:51:49;100831.44;;;22.71
63689;BMP280;54895;40.928;14.480;2023-04-12T12:54:16;100824.31;;;23.16
63689;BMP280;54895;40.928;14.480;2023-04-12T12:56:45;100837.72;;;22.87
63689;BMP280;54895;40.928;14.480;2023-04-12T12:59:15;100841.69;;;23.36
63689;BMP280;54895;40.928;14.480;2023-04-12T13:01:43;100836.06;;;23.59
63689;BMP280;54895;40.928;14.480;2023-04-12T13:04:11;100840.28;;;23.62
63689;BMP280;54895;40.928;14.480;2023-04-12T13:06:39;100840.97;;;23.22
63689;BMP280;54895;40.928;14.480;2023-04-12T13:09:08;100842.34;;;23.23
63689;BMP280;54895;40.928;14.480;2023-04-12T13:11:34;100835.25;;;23.43
63689;BMP280;54895;40.928;14.480;2023-04-12T13:14:03;100841.56;;;23.34
63689;BMP280;54895;40.928;14.480;2023-04-12T13:16:48;100821.56;;;23.41
63689;BMP280;54895;40.928;14.480;2023-04-12T13:19:14;100829.63;;;23.26
63689;BMP280;54895;40.928;14.480;2023-04-12T13:21:41;100833.63;;;23.38
63689;BMP280;54895;40.928;14.480;2023-04-12T13:24:08;100824.13;;;23.12
63689;BMP280;54895;40.928;14.480;2023-04-12T13:26:35;100831.19;;;22.92
63689;BMP280;54895;40.928;14.480;2023-04-12T13:29:01;100827.16;;;22.68
63689;BMP280;54895;40.928;14.480;2023-04-12T13:31:28;100826.16;;;22.03
63689;BMP280;54895;40.928;14.480;2023-04-12T13:33:54;100821.66;;;22.30
63689;BMP280;54895;40.928;14.480;2023-04-12T13:36:21;100829.34;;;22.83
63689;BMP280;54895;40.928;14.480;2023-04-12T13:38:47;100833.88;;;22.31
63689;BMP280;54895;40.928;14.480;2023-04-12T13:41:13;100832.81;;;22.72
63689;BMP280;54895;40.928;14.480;2023-04-12T13:43:39;100811.13;;;22.97
63689;BMP280;54895;40.928;14.480;2023-04-12T13:46:06;100820.53;;;23.21
63689;BMP280;54895;40.928;14.480;2023-04-12T13:48:32;100822.16;;;23.26
63689;BMP280;54895;40.928;14.480;2023-04-12T13:50:59;100814.41;;;23.34
63689;BMP280;54895;40.928;14.480;2023-04-12T13:53:25;100819.16;;;22.95
63689;BMP280;54895;40.928;14.480;2023-04-12T13:55:52;100800.63;;;23.30
63689;BMP280;54895;40.928;14.480;2023-04-12T13:58:18;100813.94;;;23.78
63689;BMP280;54895;40.928;14.480;2023-04-12T14:00:44;100825.00;;;23.55
63689;BMP280;54895;40.928;14.480;2023-04-12T14:03:11;100819.34;;;23.91
63689;BMP280;54895;40.928;14.480;2023-04-12T14:05:41;100813.94;;;23.78
63689;BMP280;54895;40.928;14.480;2023-04-12T14:08:07;100810.03;;;23.68
63689;BMP280;54895;40.928;14.480;2023-04-12T14:10:35;100806.69;;;23.42
63689;BMP280;54895;40.928;14.480;2023-04-12T14:13:02;100799.44;;;23.60
63689;BMP280;54895;40.928;14.480;2023-04-12T14:15:29;100790.50;;;23.71
63689;BMP280;54895;40.928;14.480;2023-04-12T14:17:55;100796.34;;;23.79
63689;BMP280;54895;40.928;14.480;2023-04-12T14:20:22;100790.09;;;23.76
63689;BMP280;54895;40.928;14.480;2023-04-12T14:22:49;100796.31;;;23.25
63689;BMP280;54895;40.928;14.480;2023-04-12T14:25:16;100801.25;;;22.65
63689;BMP280;54895;40.928;14.480;2023-04-12T14:27:43;100803.84;;;22.88